createdAt,value
2023-02-19T00:02:23.946Z,60.67
2023-02-19T00:05:01.821Z,60.66
2023-02-19T04:09:59.551Z,62.91
2023-02-19T04:12:39.639Z,62.99
2023-02-19T04:15:12.353Z,63.13
2023-02-19T04:17:45.473Z,63.35
2023-02-19T04:20:16.081Z,63.61
2023-02-19T04:22:44.691Z,63.64
2023-02-19T04:25:15.826Z,63.72
2023-02-19T04:27:44.223Z,64.26
2023-02-19T04:30:14.301Z,63.39
2023-02-19T04:32:46.298Z,62.85
2023-02-19T04:35:26.354Z,63.26
2023-02-19T04:37:57.525Z,63.56
2023-02-19T04:40:29.513Z,64.01
2023-02-19T04:42:58.420Z,64.13
2023-02-19T04:45:34.010Z,64.20
2023-02-19T04:48:06.724Z,64.29
2023-02-19T04:50:39.869Z,64.63
2023-02-19T04:53:10.251Z,64.80
2023-02-19T04:55:40.642Z,64.94
2023-02-19T04:58:08.683Z,64.10
2023-02-19T05:00:37.166Z,63.77
2023-02-19T05:03:12.462Z,64.02
2023-02-19T05:06:11.931Z,64.29
2023-02-19T05:08:46.551Z,64.60
2023-02-19T05:11:18.589Z,64.70
2023-02-19T05:13:54.801Z,65.22
2023-02-19T05:16:27.006Z,65.55
2023-02-19T05:18:56.137Z,65.60
2023-02-19T05:21:25.587Z,65.84
2023-02-19T05:23:56.386Z,66.28
2023-02-19T05:26:25.309Z,65.45
2023-02-19T05:28:53.545Z,65.17
2023-02-19T05:31:27.909Z,65.68
2023-02-19T05:33:58.735Z,66.24
2023-02-19T05:36:30.851Z,66.54
2023-02-19T05:38:58.857Z,67.16
2023-02-19T05:41:27.862Z,67.34
2023-02-19T05:43:57.511Z,67.74
2023-02-19T05:46:31.751Z,68.06
2023-02-19T05:49:03.588Z,67.33
2023-02-19T05:51:34.633Z,67.13
2023-02-19T05:54:04.555Z,67.43
2023-02-19T05:56:39.688Z,68.08
2023-02-19T05:59:29.016Z,68.12
2023-02-19T06:01:58.373Z,68.29
2023-02-19T06:04:31.546Z,69.00
2023-02-19T06:07:05.352Z,69.10
2023-02-19T06:09:35.423Z,67.86
2023-02-19T06:12:08.686Z,67.64
2023-02-19T06:14:39.050Z,68.23
2023-02-19T06:17:08.256Z,68.50
2023-02-19T06:19:39.370Z,68.94
2023-02-19T06:22:12.137Z,69.10
2023-02-19T06:24:45.054Z,69.08
2023-02-19T06:27:16.104Z,69.13
2023-02-19T06:29:49.870Z,68.42
2023-02-19T06:32:18.627Z,68.11
2023-02-19T06:34:55.546Z,68.17
2023-02-19T06:37:26.955Z,68.43
2023-02-19T06:39:54.741Z,68.67
2023-02-19T06:42:32.725Z,68.91
2023-02-19T06:45:02.741Z,68.84
2023-02-19T06:47:32.325Z,68.19
2023-02-19T06:50:07.697Z,67.31
2023-02-19T06:52:44.778Z,67.15
2023-02-19T06:55:15.706Z,67.62
2023-02-19T06:57:49.256Z,67.98
2023-02-19T07:00:20.695Z,67.56
2023-02-19T07:02:56.706Z,67.72
2023-02-19T07:05:28.317Z,67.86
2023-02-19T07:08:02.938Z,67.30
2023-02-19T07:10:33.531Z,66.13
2023-02-19T07:13:04.724Z,65.60
2023-02-19T07:16:25.253Z,65.71
2023-02-19T07:18:58.851Z,65.68
2023-02-19T07:21:58.082Z,66.08
2023-02-19T07:24:29.939Z,66.00
2023-02-19T07:27:00.931Z,66.03
2023-02-19T07:29:31.000Z,66.17
2023-02-19T07:32:30.912Z,65.58
2023-02-19T07:34:58.328Z,63.71
2023-02-19T07:37:29.552Z,63.65
2023-02-19T07:39:58.616Z,64.23
2023-02-19T07:42:26.385Z,63.32
2023-02-19T07:44:55.774Z,63.33
2023-02-19T07:47:25.215Z,63.40
2023-02-19T07:49:54.317Z,63.78
2023-02-19T07:52:25.379Z,62.81
2023-02-19T07:55:00.038Z,61.83
2023-02-19T07:57:33.351Z,61.49
2023-02-19T08:00:28.148Z,61.63
2023-02-19T08:03:02.649Z,61.28
2023-02-19T08:05:40.260Z,60.48
2023-02-19T08:08:10.812Z,58.97
2023-02-19T08:10:58.711Z,58.82
2023-02-19T08:13:30.314Z,59.40
2023-02-19T08:16:42.526Z,59.52
2023-02-19T08:19:13.146Z,57.91
2023-02-19T08:21:45.411Z,57.29
2023-02-19T08:24:16.846Z,56.62
2023-02-19T08:26:48.676Z,55.96
2023-02-19T08:29:18.137Z,54.91
2023-02-19T08:31:48.535Z,54.86
2023-02-19T08:34:20.692Z,54.58
2023-02-19T08:36:51.104Z,54.63
2023-02-19T08:39:21.926Z,54.65
2023-02-19T08:41:52.155Z,54.44
2023-02-19T08:44:32.294Z,53.76
2023-02-19T08:47:01.117Z,53.95
2023-02-19T08:49:29.298Z,53.91
2023-02-19T08:52:02.681Z,53.42
2023-02-19T08:54:37.324Z,53.49
2023-02-19T08:57:09.468Z,52.28
2023-02-19T08:59:40.797Z,52.13
2023-02-19T09:02:13.135Z,52.54
2023-02-19T09:04:45.819Z,52.16
2023-02-19T09:07:24.599Z,52.33
2023-02-19T09:09:54.336Z,52.68
2023-02-19T09:12:25.312Z,52.96
2023-02-19T09:14:55.339Z,53.08
2023-02-19T09:17:32.192Z,53.01
2023-02-19T09:20:06.118Z,53.51
2023-02-19T09:22:36.164Z,53.87
2023-02-19T09:25:06.578Z,53.69
2023-02-19T09:27:36.110Z,53.66
2023-02-19T09:30:08.806Z,53.43
2023-02-19T09:32:42.415Z,52.63
2023-02-19T09:35:14.420Z,51.85
2023-02-19T09:37:45.532Z,51.26
2023-02-19T09:40:21.057Z,50.57
2023-02-19T09:43:21.841Z,51.50
2023-02-19T09:45:51.530Z,51.85
2023-02-19T09:48:32.402Z,52.05
2023-02-19T09:51:04.776Z,52.31
2023-02-19T09:53:41.421Z,52.08
2023-02-19T09:56:14.834Z,51.06
2023-02-19T09:58:49.031Z,50.99
2023-02-19T10:01:16.739Z,51.18
2023-02-19T10:03:47.195Z,50.46
2023-02-19T10:06:23.506Z,50.57
2023-02-19T10:09:28.968Z,50.27
2023-02-19T10:11:59.415Z,50.46
2023-02-19T10:14:39.359Z,50.41
2023-02-19T10:17:15.762Z,50.78
2023-02-19T10:20:15.357Z,50.32
2023-02-19T10:23:07.815Z,50.51
2023-02-19T10:25:43.224Z,50.81
2023-02-19T10:28:45.499Z,51.06
2023-02-19T10:31:41.414Z,50.81
2023-02-19T10:34:21.663Z,50.61
2023-02-19T10:37:15.863Z,50.64
2023-02-19T10:39:49.710Z,49.79
2023-02-19T10:42:23.204Z,48.09
2023-02-19T10:44:58.246Z,48.01
2023-02-19T10:47:27.133Z,48.30
2023-02-19T10:50:02.122Z,48.80
2023-02-19T10:52:36.186Z,49.31
2023-02-19T10:55:24.641Z,49.30
2023-02-19T10:57:59.306Z,49.17
2023-02-19T11:00:30.708Z,48.84
2023-02-19T11:03:33.232Z,48.48
2023-02-19T11:06:09.526Z,48.17
2023-02-19T11:09:00.618Z,46.93
2023-02-19T11:11:33.270Z,45.41
2023-02-19T11:14:22.694Z,45.67
2023-02-19T11:16:54.102Z,46.20
2023-02-19T11:19:42.092Z,46.83
2023-02-19T11:22:58.586Z,46.70
2023-02-19T11:25:28.471Z,46.85
2023-02-19T11:28:21.462Z,47.46
2023-02-19T11:30:55.476Z,47.77
2023-02-19T11:33:29.240Z,47.79
2023-02-19T11:36:30.062Z,48.04
2023-02-19T11:39:04.182Z,48.49
2023-02-19T11:42:17.725Z,48.65
2023-02-19T11:45:20.678Z,48.92
2023-02-19T11:48:23.432Z,48.97
2023-02-19T11:51:15.306Z,49.41
2023-02-19T11:53:49.830Z,49.56
2023-02-19T11:56:19.829Z,49.97
2023-02-19T11:59:07.138Z,50.10
2023-02-19T12:02:06.844Z,49.53
2023-02-19T12:05:14.823Z,49.20
2023-02-19T12:08:27.753Z,49.38
2023-02-19T12:11:13.705Z,49.57
2023-02-19T12:14:32.469Z,49.40
2023-02-19T12:17:49.932Z,49.37
2023-02-19T12:20:51.219Z,49.77
2023-02-19T12:23:55.432Z,49.92
2023-02-19T12:26:42.948Z,49.78
2023-02-19T12:29:51.952Z,50.17
2023-02-19T12:33:09.217Z,50.39
2023-02-19T12:36:23.880Z,50.87
2023-02-19T12:39:53.223Z,50.63
2023-02-19T12:43:05.362Z,50.60
2023-02-19T12:46:13.339Z,50.38
2023-02-19T12:48:52.385Z,50.03
2023-02-19T12:51:50.020Z,49.91
2023-02-19T12:54:48.916Z,49.80
2023-02-19T12:57:38.241Z,49.47
2023-02-19T13:00:34.665Z,49.33
2023-02-19T13:03:27.707Z,48.90
2023-02-19T13:06:22.388Z,49.01
2023-02-19T13:09:06.731Z,49.06
2023-02-19T13:12:37.678Z,49.08
2023-02-19T13:15:14.739Z,49.07
2023-02-19T13:18:01.463Z,49.26
2023-02-19T13:20:45.126Z,49.37
2023-02-19T13:23:57.609Z,49.45
2023-02-19T13:26:48.585Z,49.36
2023-02-19T13:30:15.358Z,49.56
2023-02-19T13:33:30.050Z,49.50
2023-02-19T13:36:12.957Z,49.24
2023-02-19T13:38:45.564Z,49.43
2023-02-19T13:41:29.398Z,48.84
2023-02-19T13:44:03.471Z,48.76
2023-02-19T13:46:40.684Z,48.92
2023-02-19T13:49:35.080Z,49.17
2023-02-19T13:52:37.536Z,49.41
2023-02-19T13:55:46.061Z,49.52
2023-02-19T13:58:51.943Z,49.39
2023-02-19T14:02:00.297Z,49.24
2023-02-19T14:05:02.641Z,49.17
2023-02-19T14:07:59.930Z,49.15
2023-02-19T14:10:57.376Z,49.14
2023-02-19T14:14:06.355Z,48.90
2023-02-19T14:17:31.963Z,49.22
2023-02-19T14:20:54.237Z,49.65
2023-02-19T14:23:28.340Z,49.70
2023-02-19T14:26:03.912Z,49.56
2023-02-19T14:28:41.131Z,49.64
2023-02-19T14:31:20.986Z,49.85
2023-02-19T14:33:53.797Z,49.70
2023-02-19T14:36:50.723Z,49.47
2023-02-19T14:39:52.788Z,49.92
2023-02-19T14:42:26.132Z,49.92
2023-02-19T14:44:56.913Z,50.18
2023-02-19T14:47:36.528Z,50.05
2023-02-19T14:50:08.954Z,50.13
2023-02-19T14:52:43.891Z,50.25
2023-02-19T14:55:37.462Z,50.37
2023-02-19T14:58:30.180Z,50.44
2023-02-19T15:00:59.216Z,50.46
2023-02-19T15:03:35.032Z,50.88
2023-02-19T15:06:07.668Z,50.73
2023-02-19T15:08:49.142Z,50.85
2023-02-19T15:11:22.278Z,50.89
2023-02-19T15:14:13.029Z,51.37
2023-02-19T15:16:47.948Z,51.29
2023-02-19T15:19:20.832Z,51.39
2023-02-19T15:21:54.731Z,51.57
2023-02-19T15:24:36.118Z,51.79
2023-02-19T15:27:07.313Z,51.95
2023-02-19T15:29:37.957Z,52.11
2023-02-19T15:32:16.293Z,52.44
2023-02-19T15:35:06.702Z,52.61
2023-02-19T15:37:42.735Z,52.94
2023-02-19T15:40:26.828Z,53.19
2023-02-19T15:42:59.292Z,53.23
2023-02-19T15:45:38.309Z,53.71
2023-02-19T15:48:20.076Z,53.71
2023-02-19T15:50:55.790Z,53.95
2023-02-19T15:53:32.253Z,54.29
2023-02-19T15:56:16.418Z,54.64
2023-02-19T15:59:03.216Z,54.75
2023-02-19T16:01:58.409Z,54.96
2023-02-19T16:04:29.290Z,55.03
2023-02-19T16:07:32.588Z,55.28
2023-02-19T16:10:16.327Z,54.98
2023-02-19T16:12:56.893Z,55.20
2023-02-19T16:15:27.870Z,55.38
2023-02-19T16:17:56.312Z,55.23
2023-02-19T16:20:34.857Z,55.39
2023-02-19T16:23:11.479Z,55.20
2023-02-19T16:27:42.826Z,55.70
2023-02-19T16:30:27.915Z,55.38
2023-02-19T16:33:38.328Z,55.57
2023-02-19T16:36:42.626Z,55.99
2023-02-19T16:39:18.381Z,55.95
2023-02-19T16:41:54.298Z,56.03
2023-02-19T16:44:27.710Z,55.96
2023-02-19T16:47:04.945Z,56.21
2023-02-19T16:49:35.092Z,56.16
2023-02-19T16:52:07.295Z,56.13
2023-02-19T16:54:37.171Z,56.19
2023-02-19T16:57:09.794Z,56.17
2023-02-19T16:59:40.387Z,56.05
2023-02-19T17:02:14.456Z,56.21
2023-02-19T17:04:43.957Z,56.49
2023-02-19T17:07:19.637Z,56.07
2023-02-19T17:09:51.897Z,55.76
2023-02-19T17:12:24.283Z,56.04
2023-02-19T17:14:55.650Z,55.97
2023-02-19T17:17:24.272Z,56.00
2023-02-19T17:19:54.015Z,56.01
2023-02-19T17:22:24.503Z,56.27
2023-02-19T17:24:54.980Z,56.29
2023-02-19T17:27:28.889Z,56.03
2023-02-19T17:29:59.274Z,55.89
2023-02-19T17:32:35.795Z,56.34
2023-02-19T17:35:06.865Z,56.11
2023-02-19T17:37:35.733Z,56.04
2023-02-19T17:40:31.899Z,55.98
2023-02-19T17:43:03.004Z,55.99
2023-02-19T17:45:36.587Z,56.37
2023-02-19T17:48:07.296Z,56.13
2023-02-19T17:50:39.496Z,56.25
2023-02-19T17:53:08.886Z,56.54
2023-02-19T17:55:37.505Z,56.24
2023-02-19T17:58:09.621Z,56.27
2023-02-19T18:00:39.324Z,56.90
2023-02-19T18:03:08.665Z,56.69
2023-02-19T18:05:39.061Z,57.09
2023-02-19T18:08:14.388Z,57.22
2023-02-19T18:10:49.478Z,57.58
2023-02-19T18:13:19.457Z,57.69
2023-02-19T18:15:49.374Z,58.07
2023-02-19T18:18:23.295Z,58.14
2023-02-19T18:20:53.939Z,57.35
2023-02-19T18:23:28.520Z,57.06
2023-02-19T18:26:03.884Z,56.81
2023-02-19T18:28:34.960Z,57.22
2023-02-19T18:31:06.339Z,57.73
2023-02-19T18:33:35.689Z,57.83
2023-02-19T18:36:09.555Z,57.68
2023-02-19T18:38:41.621Z,58.27
2023-02-19T18:41:20.269Z,58.36
2023-02-19T18:43:59.768Z,58.37
2023-02-19T18:46:37.692Z,58.31
2023-02-19T18:49:09.625Z,58.55
2023-02-19T18:51:44.200Z,58.54
2023-02-19T18:54:16.010Z,58.81
2023-02-19T18:56:47.343Z,58.84
2023-02-19T18:59:16.286Z,59.11
2023-02-19T19:01:48.814Z,58.76
2023-02-19T19:04:18.927Z,58.87
2023-02-19T19:06:50.407Z,59.47
2023-02-19T19:09:24.698Z,59.37
2023-02-19T19:11:55.889Z,59.69
2023-02-19T19:14:27.571Z,59.63
2023-02-19T19:17:00.697Z,58.90
2023-02-19T19:19:32.078Z,58.37
2023-02-19T19:22:07.407Z,59.07
2023-02-19T19:24:41.873Z,58.99
2023-02-19T19:27:13.138Z,59.13
2023-02-19T19:29:47.806Z,59.08
2023-02-19T19:32:21.308Z,59.51
2023-02-19T19:34:53.336Z,59.16
2023-02-19T19:37:28.893Z,59.24
2023-02-19T19:40:05.247Z,59.18
2023-02-19T19:42:39.049Z,59.65
2023-02-19T19:45:18.800Z,59.44
2023-02-19T19:47:56.144Z,59.56
2023-02-19T19:50:30.999Z,59.68
2023-02-19T19:53:02.092Z,59.52
2023-02-19T19:55:32.550Z,60.02
2023-02-19T19:58:04.461Z,60.13
2023-02-19T20:00:36.817Z,59.52
2023-02-19T20:03:07.221Z,58.99
2023-02-19T20:05:35.987Z,59.53
2023-02-19T20:08:09.304Z,59.52
2023-02-19T20:10:39.130Z,60.03
2023-02-19T20:13:12.918Z,59.92
2023-02-19T20:15:44.491Z,60.06
2023-02-19T20:18:30.680Z,60.51
2023-02-19T20:21:04.763Z,60.40
2023-02-19T20:23:40.200Z,60.76
2023-02-19T20:26:10.396Z,60.91
2023-02-19T20:28:46.539Z,61.07
2023-02-19T20:31:18.981Z,61.23
2023-02-19T20:33:51.278Z,61.52
2023-02-19T20:36:20.294Z,61.63
2023-02-19T20:38:51.502Z,61.41
2023-02-19T20:41:21.483Z,61.21
2023-02-19T20:43:53.090Z,61.01
2023-02-19T20:46:23.615Z,61.21
2023-02-19T20:48:56.148Z,61.33
2023-02-19T20:51:25.255Z,61.76
2023-02-19T20:53:58.506Z,62.24
2023-02-19T20:56:28.440Z,62.18
2023-02-19T20:58:59.626Z,62.07
2023-02-19T21:01:29.418Z,62.15
2023-02-19T21:03:59.664Z,62.02
2023-02-19T21:06:31.672Z,61.90
2023-02-19T21:09:04.110Z,62.21
2023-02-19T21:11:37.145Z,62.07
2023-02-19T21:14:07.862Z,61.76
2023-02-19T21:16:38.138Z,60.83
2023-02-19T21:19:14.624Z,60.72
2023-02-19T21:21:46.949Z,60.61
2023-02-19T21:24:22.730Z,61.20
2023-02-19T21:26:54.165Z,61.21
2023-02-19T21:29:25.522Z,61.12
2023-02-19T21:31:56.097Z,60.83
2023-02-19T21:34:27.121Z,61.25
2023-02-19T21:37:00.000Z,61.05
2023-02-19T21:39:34.214Z,60.83
2023-02-19T21:42:18.127Z,61.02
2023-02-19T21:44:48.010Z,61.12
2023-02-19T21:47:18.280Z,60.68
2023-02-19T21:49:48.036Z,60.02
2023-02-19T21:52:18.018Z,60.52
2023-02-19T21:54:47.869Z,60.70
2023-02-19T21:57:16.281Z,60.89
2023-02-19T21:59:46.118Z,60.85
2023-02-19T22:02:14.958Z,61.14
2023-02-19T22:04:51.374Z,61.18
2023-02-19T22:07:21.913Z,61.14
2023-02-19T22:09:53.604Z,61.34
2023-02-19T22:12:23.110Z,61.63
2023-02-19T22:14:54.972Z,61.58
2023-02-19T22:17:25.979Z,61.36
2023-02-19T22:19:57.340Z,60.91
2023-02-19T22:22:27.643Z,61.32
2023-02-19T22:24:58.309Z,61.83
2023-02-19T22:27:29.850Z,62.02
2023-02-19T22:30:02.054Z,62.06
2023-02-19T22:32:34.114Z,62.36
2023-02-19T22:35:04.436Z,62.30
2023-02-19T22:37:36.357Z,62.64
2023-02-19T22:40:08.091Z,62.59
2023-02-19T22:42:39.951Z,62.74
2023-02-19T22:45:14.044Z,62.55
2023-02-19T22:47:47.057Z,61.99
2023-02-19T22:50:20.715Z,61.65
2023-02-19T22:52:55.051Z,61.68
2023-02-19T22:55:23.581Z,62.07
2023-02-19T22:57:59.055Z,62.12
2023-02-19T23:00:31.506Z,62.38
2023-02-19T23:03:02.676Z,62.55
2023-02-19T23:05:34.766Z,62.82
2023-02-19T23:08:10.781Z,62.84
2023-02-19T23:10:43.420Z,62.84
2023-02-19T23:13:14.139Z,63.44
2023-02-19T23:15:44.374Z,63.14
2023-02-19T23:18:14.201Z,62.21
2023-02-19T23:20:42.663Z,61.99
2023-02-19T23:23:12.644Z,61.97
2023-02-19T23:25:44.816Z,62.35
2023-02-19T23:28:14.381Z,62.35
2023-02-19T23:30:47.291Z,62.87
2023-02-19T23:33:17.964Z,62.76
2023-02-19T23:35:50.388Z,62.92
2023-02-19T23:38:20.425Z,63.22
2023-02-19T23:40:51.481Z,63.21
2023-02-19T23:43:22.959Z,63.01
2023-02-19T23:45:54.028Z,63.15
2023-02-19T23:48:23.916Z,62.42
2023-02-19T23:50:58.158Z,61.52
2023-02-19T23:53:30.382Z,61.56
2023-02-19T23:56:01.200Z,62.04
2023-02-19T23:58:32.202Z,62.05
